createdAt,value
2022-08-07T00:02:41.181Z,9.82
2022-08-07T00:05:03.991Z,9.83
2022-08-07T00:07:39.251Z,9.62
2022-08-07T00:10:26.193Z,9.69
2022-08-07T00:13:00.383Z,9.62
2022-08-07T00:15:38.633Z,9.37
2022-08-07T00:18:23.848Z,9.40
2022-08-07T00:20:52.221Z,9.59
2022-08-07T00:23:21.401Z,9.61
2022-08-07T00:25:52.485Z,9.61
2022-08-07T00:28:33.234Z,9.52
2022-08-07T00:31:01.857Z,9.37
2022-08-07T00:33:35.572Z,9.34
2022-08-07T00:36:04.736Z,9.43
2022-08-07T00:38:33.384Z,9.50
2022-08-07T00:41:01.247Z,9.23
2022-08-07T00:44:01.959Z,8.89
2022-08-07T00:46:16.499Z,9.04
2022-08-07T00:48:45.285Z,8.88
2022-08-07T00:51:17.911Z,8.65
2022-08-07T00:53:50.128Z,8.73
2022-08-07T00:56:19.682Z,8.52
2022-08-07T00:58:49.811Z,8.75
2022-08-07T01:01:20.151Z,8.73
2022-08-07T01:03:57.351Z,8.98
2022-08-07T01:06:28.422Z,9.10
2022-08-07T01:08:58.659Z,9.08
2022-08-07T01:12:27.804Z,9.13
2022-08-07T01:14:16.825Z,9.16
2022-08-07T01:16:47.324Z,8.97
2022-08-07T01:19:19.733Z,8.96
2022-08-07T01:21:53.247Z,8.97
2022-08-07T01:24:22.304Z,9.11
2022-08-07T01:26:51.996Z,9.13
2022-08-07T01:29:20.304Z,8.98
2022-08-07T01:31:50.110Z,8.91
2022-08-07T01:34:18.921Z,8.74
2022-08-07T01:36:52.813Z,8.43
2022-08-07T01:39:39.644Z,8.37
2022-08-07T01:42:37.883Z,8.28
2022-08-07T01:45:03.263Z,8.47
2022-08-07T01:48:18.364Z,8.71
2022-08-07T01:50:32.038Z,-139.23
2022-08-07T01:54:09.385Z,-139.23
2022-08-07T01:56:24.972Z,-139.23
2022-08-07T01:59:37.163Z,-139.23
2022-08-07T02:03:11.285Z,8.71
2022-08-07T02:05:43.438Z,8.71
2022-08-07T02:09:51.544Z,-139.23
2022-08-07T02:13:01.297Z,-139.23
2022-08-07T02:16:28.727Z,-139.23
2022-08-07T02:20:07.359Z,-139.23
2022-08-07T02:22:41.344Z,8.71
2022-08-07T02:25:17.474Z,8.50
2022-08-07T02:27:52.258Z,8.32
2022-08-07T02:30:20.908Z,8.36
2022-08-07T02:33:00.581Z,-139.23
2022-08-07T02:36:30.097Z,8.36
2022-08-07T02:39:09.468Z,8.36
2022-08-07T02:42:43.722Z,-139.23
2022-08-07T02:45:57.606Z,8.49
2022-08-07T02:48:03.628Z,8.38
2022-08-07T02:50:33.866Z,8.47
2022-08-07T02:53:07.578Z,8.38
2022-08-07T02:56:03.179Z,8.35
2022-08-07T02:58:33.358Z,8.04
2022-08-07T03:01:04.195Z,7.77
2022-08-07T03:03:42.264Z,7.71
2022-08-07T03:06:33.056Z,7.71
2022-08-07T03:09:02.764Z,7.82
2022-08-07T03:11:32.659Z,7.67
2022-08-07T03:14:06.530Z,7.62
2022-08-07T03:16:36.691Z,7.75
2022-08-07T03:19:06.623Z,7.88
2022-08-07T03:21:37.092Z,8.07
2022-08-07T03:24:20.299Z,8.07
2022-08-07T03:27:59.161Z,-139.23
2022-08-07T03:30:28.188Z,8.07
2022-08-07T03:33:02.536Z,8.07
2022-08-07T03:35:43.532Z,8.07
2022-08-07T03:38:29.570Z,8.07
2022-08-07T03:40:57.967Z,8.18
2022-08-07T03:43:36.092Z,8.18
2022-08-07T03:46:33.529Z,8.18
2022-08-07T03:50:01.511Z,-139.23
2022-08-07T03:53:50.116Z,-139.23
2022-08-07T03:58:32.706Z,-139.23
2022-08-07T04:01:07.514Z,-139.23
2022-08-07T04:04:38.097Z,-139.23
2022-08-07T04:08:04.632Z,-139.23
2022-08-07T04:12:26.331Z,-139.23
2022-08-07T04:15:18.325Z,-139.23
2022-08-07T04:18:59.423Z,-139.23
2022-08-07T04:22:30.047Z,-139.23
2022-08-07T04:25:08.864Z,8.18
2022-08-07T04:28:38.793Z,-139.23
2022-08-07T04:31:38.359Z,8.18
2022-08-07T04:34:53.692Z,-139.23
2022-08-07T04:38:07.813Z,-139.23
2022-08-07T04:41:36.887Z,-139.23
2022-08-07T04:45:08.071Z,-139.23
2022-08-07T04:48:44.740Z,-139.23
2022-08-07T04:52:19.128Z,-139.23
2022-08-07T04:58:15.331Z,-139.23
2022-08-07T05:00:12.593Z,-139.23
2022-08-07T05:04:07.375Z,-139.23
2022-08-07T05:07:48.181Z,-139.23
2022-08-07T05:11:24.262Z,-139.23
2022-08-07T05:15:04.531Z,-139.23
2022-08-07T05:18:35.087Z,-139.23
2022-08-07T05:22:04.591Z,-139.23
2022-08-07T05:25:54.436Z,-139.23
2022-08-07T05:29:22.113Z,-139.23
2022-08-07T05:32:49.118Z,-139.23
2022-08-07T05:36:22.599Z,-139.23
2022-08-07T05:40:16.813Z,-139.23
2022-08-07T05:43:49.749Z,-139.23
2022-08-07T05:47:21.328Z,-139.23
2022-08-07T05:51:04.835Z,-139.23
2022-08-07T05:54:44.289Z,-139.23
2022-08-07T05:57:23.174Z,-139.23
2022-08-07T06:00:56.226Z,-139.23
2022-08-07T06:04:30.007Z,-139.23
2022-08-07T06:08:13.438Z,-139.23
2022-08-07T06:11:43.661Z,-139.23
2022-08-07T06:15:15.923Z,-139.23
2022-08-07T06:18:43.310Z,-139.23
2022-08-07T06:22:23.848Z,-139.23
2022-08-07T06:25:54.873Z,-139.23
2022-08-07T06:29:27.056Z,-139.23
2022-08-07T06:32:55.895Z,-139.23
2022-08-07T06:36:35.397Z,-139.23
2022-08-07T06:40:17.506Z,-139.23
2022-08-07T06:44:01.808Z,-139.23
2022-08-07T06:47:48.091Z,-139.23
2022-08-07T06:51:33.069Z,-139.23
2022-08-07T06:55:34.391Z,-139.23
2022-08-07T07:00:13.186Z,-139.23
2022-08-07T07:02:53.585Z,-139.23
2022-08-07T07:06:23.980Z,-139.23
2022-08-07T07:09:52.892Z,-139.23
2022-08-07T07:13:55.389Z,-139.23
2022-08-07T07:17:21.528Z,-139.23
2022-08-07T07:21:03.930Z,-139.23
2022-08-07T07:24:30.448Z,-139.23
2022-08-07T07:28:02.974Z,-139.23
2022-08-07T07:31:39.864Z,-139.23
2022-08-07T07:35:11.405Z,-139.23
2022-08-07T07:38:40.684Z,-139.23
2022-08-07T07:42:14.005Z,-139.23
2022-08-07T07:46:53.573Z,-139.23
2022-08-07T07:50:34.370Z,-139.23
2022-08-07T07:53:25.522Z,-139.23
2022-08-07T07:56:53.212Z,-139.23
2022-08-07T08:00:29.735Z,-139.23
2022-08-07T08:04:09.856Z,-139.23
2022-08-07T08:06:56.873Z,8.18
2022-08-07T08:10:37.654Z,-139.23
2022-08-07T08:14:05.893Z,-139.23
2022-08-07T08:17:57.896Z,-139.23
2022-08-07T08:21:59.136Z,-139.23
2022-08-07T08:25:49.206Z,-139.23
2022-08-07T08:29:19.206Z,-139.23
2022-08-07T08:32:49.185Z,-139.23
2022-08-07T08:36:25.636Z,-139.23
2022-08-07T08:39:58.720Z,-139.23
2022-08-07T08:43:42.811Z,-139.23
2022-08-07T08:47:26.704Z,-139.23
2022-08-07T08:51:03.361Z,-139.23
2022-08-07T08:54:46.116Z,-139.23
2022-08-07T08:58:20.285Z,-139.23
2022-08-07T09:01:58.493Z,-139.23
2022-08-07T09:05:37.151Z,-139.23
2022-08-07T09:09:20.952Z,-139.23
2022-08-07T09:13:06.898Z,-139.23
2022-08-07T09:16:45.541Z,-139.23
2022-08-07T09:20:35.265Z,-139.23
2022-08-07T09:24:31.665Z,-139.23
2022-08-07T09:28:06.175Z,-139.23
2022-08-07T09:32:03.710Z,-139.23
2022-08-07T09:34:56.018Z,29.03
2022-08-07T09:37:48.268Z,30.22
2022-08-07T09:40:30.935Z,31.21
2022-08-07T09:43:14.575Z,31.78
2022-08-07T09:47:50.787Z,31.80
2022-08-07T09:50:00.452Z,32.31
2022-08-07T09:52:16.701Z,33.05
2022-08-07T09:54:42.011Z,32.93
2022-08-07T09:57:46.885Z,32.84
2022-08-07T10:00:18.837Z,32.25
2022-08-07T10:04:04.974Z,33.70
2022-08-07T10:06:25.661Z,34.65
2022-08-07T10:09:08.973Z,33.86
2022-08-07T10:12:01.722Z,34.10
2022-08-07T10:15:04.851Z,32.53
2022-08-07T10:18:01.178Z,33.60
2022-08-07T10:20:38.379Z,34.62
2022-08-07T10:24:05.046Z,34.08
2022-08-07T10:26:38.041Z,35.52
2022-08-07T10:29:19.056Z,36.99
2022-08-07T10:31:59.596Z,36.75
2022-08-07T10:34:37.360Z,36.55
2022-08-07T10:38:00.213Z,35.97
2022-08-07T10:40:22.387Z,37.35
2022-08-07T10:43:02.472Z,38.25
2022-08-07T10:45:44.731Z,39.00
2022-08-07T10:48:35.807Z,39.14
2022-08-07T10:51:16.961Z,37.70
2022-08-07T10:54:02.375Z,35.21
2022-08-07T10:56:41.273Z,36.32
2022-08-07T10:59:21.435Z,35.62
2022-08-07T11:02:04.786Z,34.84
2022-08-07T11:04:57.414Z,34.17
2022-08-07T11:07:58.605Z,33.15
2022-08-07T11:10:29.319Z,32.37
2022-08-07T11:13:03.448Z,32.42
2022-08-07T11:15:36.670Z,32.76
2022-08-07T11:18:12.597Z,32.51
2022-08-07T11:20:47.274Z,31.47
2022-08-07T11:23:30.814Z,32.43
2022-08-07T11:26:14.068Z,34.87
2022-08-07T11:28:53.486Z,35.45
2022-08-07T11:31:35.062Z,36.84
2022-08-07T11:34:10.239Z,36.43
2022-08-07T11:36:44.594Z,34.38
2022-08-07T11:39:24.833Z,29.73
2022-08-07T11:42:16.856Z,28.63
2022-08-07T11:44:57.515Z,27.76
2022-08-07T11:47:56.662Z,26.22
2022-08-07T11:50:57.735Z,25.84
2022-08-07T11:54:01.187Z,25.38
2022-08-07T11:56:39.012Z,24.87
2022-08-07T12:00:10.821Z,24.99
2022-08-07T12:02:52.735Z,24.75
2022-08-07T12:05:47.651Z,25.97
2022-08-07T12:08:25.734Z,29.43
2022-08-07T12:11:21.177Z,31.08
2022-08-07T12:13:55.147Z,31.90
2022-08-07T12:16:30.110Z,31.48
2022-08-07T12:19:14.796Z,31.89
2022-08-07T12:22:39.466Z,32.68
2022-08-07T12:25:10.348Z,34.16
2022-08-07T12:28:08.471Z,34.03
2022-08-07T12:30:46.785Z,33.40
2022-08-07T12:33:23.060Z,33.91
2022-08-07T12:35:58.429Z,37.16
2022-08-07T12:38:43.092Z,37.48
2022-08-07T12:41:16.801Z,36.31
2022-08-07T12:44:04.150Z,37.81
2022-08-07T12:46:46.259Z,40.66
2022-08-07T12:49:25.647Z,42.63
2022-08-07T12:52:18.102Z,43.30
2022-08-07T12:54:57.324Z,43.35
2022-08-07T12:57:39.300Z,43.94
2022-08-07T13:00:33.013Z,41.82
2022-08-07T13:04:02.553Z,42.16
2022-08-07T13:06:37.208Z,41.53
2022-08-07T13:10:20.078Z,42.63
2022-08-07T13:12:33.324Z,43.54
2022-08-07T13:15:15.021Z,44.23
2022-08-07T13:18:02.200Z,39.36
2022-08-07T13:20:41.046Z,36.72
2022-08-07T13:24:03.921Z,34.13
2022-08-07T13:26:10.551Z,33.77
2022-08-07T13:28:48.199Z,32.67
2022-08-07T13:31:21.217Z,31.24
2022-08-07T13:34:34.442Z,30.70
2022-08-07T13:36:44.363Z,30.49
2022-08-07T13:39:28.222Z,33.26
2022-08-07T13:41:59.015Z,36.38
2022-08-07T13:44:34.709Z,36.70
2022-08-07T13:47:09.594Z,35.48
2022-08-07T13:50:33.238Z,35.14
2022-08-07T13:52:38.057Z,36.12
2022-08-07T13:55:25.514Z,36.97
2022-08-07T13:58:27.846Z,38.98
2022-08-07T14:01:08.828Z,40.17
2022-08-07T14:04:07.586Z,39.59
2022-08-07T14:06:33.349Z,38.93
2022-08-07T14:09:04.503Z,41.68
2022-08-07T14:11:53.505Z,43.49
2022-08-07T14:14:32.970Z,43.13
2022-08-07T14:17:32.010Z,43.19
2022-08-07T14:20:40.657Z,40.86
2022-08-07T14:22:48.109Z,40.46
2022-08-07T14:25:18.532Z,36.80
2022-08-07T14:28:21.087Z,38.04
2022-08-07T14:30:40.692Z,39.31
2022-08-07T14:33:10.041Z,39.07
2022-08-07T14:35:45.348Z,39.04
2022-08-07T14:41:14.677Z,39.28
2022-08-07T14:46:37.998Z,41.17
2022-08-07T14:49:57.080Z,41.92
2022-08-07T14:52:11.885Z,43.61
2022-08-07T14:54:45.456Z,43.66
2022-08-07T14:57:19.393Z,42.87
2022-08-07T15:00:04.805Z,42.88
2022-08-07T15:02:37.009Z,37.85
2022-08-07T15:05:20.383Z,39.27
2022-08-07T15:07:53.396Z,41.58
2022-08-07T15:10:26.616Z,42.17
2022-08-07T15:13:22.378Z,44.25
2022-08-07T15:15:58.387Z,45.25
2022-08-07T15:21:58.642Z,45.02
2022-08-07T15:27:11.133Z,43.09
2022-08-07T15:30:06.419Z,44.28
2022-08-07T15:32:39.622Z,43.90
2022-08-07T15:35:15.038Z,42.50
2022-08-07T15:38:17.903Z,42.56
2022-08-07T15:40:39.007Z,41.23
2022-08-07T15:43:53.518Z,42.03
2022-08-07T15:46:31.638Z,43.64
2022-08-07T15:52:02.671Z,41.87
2022-08-07T15:54:39.634Z,42.28
2022-08-07T15:57:27.904Z,42.93
2022-08-07T16:00:04.098Z,40.01
2022-08-07T16:02:39.395Z,37.98
2022-08-07T16:05:15.341Z,38.18
2022-08-07T16:08:31.785Z,40.31
2022-08-07T16:10:38.566Z,41.88
2022-08-07T16:13:58.324Z,38.82
2022-08-07T16:16:57.434Z,35.99
2022-08-07T16:19:42.898Z,37.94
2022-08-07T16:22:55.782Z,38.03
2022-08-07T16:25:53.975Z,37.48
2022-08-07T16:30:06.406Z,35.96
2022-08-07T16:31:57.188Z,34.95
2022-08-07T16:34:30.181Z,35.02
2022-08-07T16:38:02.941Z,36.35
2022-08-07T16:41:01.737Z,35.88
2022-08-07T16:44:05.730Z,36.87
2022-08-07T16:47:04.744Z,39.55
2022-08-07T16:50:20.672Z,38.66
2022-08-07T16:54:01.913Z,34.52
2022-08-07T16:56:37.579Z,33.93
2022-08-07T16:59:14.740Z,34.92
2022-08-07T17:02:00.135Z,34.93
2022-08-07T17:04:50.847Z,34.48
2022-08-07T17:07:55.413Z,33.94
2022-08-07T17:10:32.479Z,32.53
2022-08-07T17:13:38.857Z,32.80
2022-08-07T17:16:18.229Z,32.49
2022-08-07T17:19:00.352Z,31.85
2022-08-07T17:21:51.796Z,32.32
2022-08-07T17:24:32.235Z,32.30
2022-08-07T17:27:05.705Z,32.44
2022-08-07T17:30:14.101Z,32.53
2022-08-07T17:32:56.890Z,31.57
2022-08-07T17:35:55.113Z,30.07
2022-08-07T17:38:33.361Z,30.72
2022-08-07T17:42:00.573Z,32.23
2022-08-07T17:44:08.267Z,32.81
2022-08-07T17:46:52.589Z,32.95
2022-08-07T17:49:24.628Z,32.90
2022-08-07T17:52:00.944Z,31.87
2022-08-07T17:54:40.070Z,31.57
2022-08-07T17:57:32.033Z,31.63
2022-08-07T18:00:32.955Z,31.91
2022-08-07T18:03:18.528Z,31.74
2022-08-07T18:06:02.293Z,30.80
2022-08-07T18:08:33.723Z,30.75
2022-08-07T18:12:06.697Z,30.33
2022-08-07T18:14:01.935Z,29.53
2022-08-07T18:16:34.088Z,28.19
2022-08-07T18:21:09.617Z,27.69
2022-08-07T18:22:26.152Z,27.34
2022-08-07T18:25:01.603Z,27.14
2022-08-07T18:28:36.158Z,26.26
2022-08-07T18:31:18.483Z,24.82
2022-08-07T18:34:37.918Z,23.10
2022-08-07T18:38:59.367Z,22.10
2022-08-07T18:40:43.057Z,21.38
2022-08-07T18:43:15.037Z,20.69
2022-08-07T18:46:24.492Z,20.18
2022-08-07T18:50:05.894Z,19.75
2022-08-07T18:52:34.674Z,19.47
2022-08-07T18:54:43.355Z,19.17
2022-08-07T18:57:30.499Z,18.90
2022-08-07T19:00:32.877Z,18.69
2022-08-07T19:03:03.986Z,18.40
2022-08-07T19:06:03.590Z,18.20
2022-08-07T19:08:46.423Z,17.99
2022-08-07T19:11:36.711Z,17.87
2022-08-07T19:14:17.337Z,17.75
2022-08-07T19:17:07.119Z,17.69
2022-08-07T19:19:51.704Z,17.63
2022-08-07T19:22:30.588Z,17.56
2022-08-07T19:25:06.432Z,17.44
2022-08-07T19:30:55.674Z,17.39
2022-08-07T19:31:05.414Z,17.37
2022-08-07T19:33:33.555Z,17.28
2022-08-07T19:36:04.857Z,17.08
2022-08-07T19:38:53.325Z,17.05
2022-08-07T19:41:39.034Z,16.85
2022-08-07T19:44:21.973Z,16.50
2022-08-07T19:46:55.860Z,16.51
2022-08-07T19:49:57.141Z,16.44
2022-08-07T19:52:18.111Z,16.28
2022-08-07T19:54:56.268Z,16.06
2022-08-07T19:58:00.065Z,15.76
2022-08-07T20:00:27.979Z,15.52
2022-08-07T20:03:01.086Z,15.38
2022-08-07T20:05:31.715Z,15.25
2022-08-07T20:08:23.885Z,15.13
2022-08-07T20:10:56.224Z,15.04
2022-08-07T20:13:35.211Z,15.01
2022-08-07T20:16:09.700Z,14.88
2022-08-07T20:19:00.274Z,14.74
2022-08-07T20:21:42.293Z,14.66
2022-08-07T20:24:17.519Z,14.49
2022-08-07T20:26:51.931Z,14.41
2022-08-07T20:29:48.703Z,14.24
2022-08-07T20:32:23.084Z,14.05
2022-08-07T20:34:55.178Z,14.18
2022-08-07T20:37:26.399Z,14.37
2022-08-07T20:40:03.094Z,14.49
2022-08-07T20:42:35.349Z,14.34
2022-08-07T20:45:32.668Z,14.18
2022-08-07T20:47:58.379Z,14.18
2022-08-07T20:50:28.925Z,14.32
2022-08-07T20:53:00.152Z,14.33
2022-08-07T20:55:28.271Z,14.25
2022-08-07T20:58:03.689Z,14.15
2022-08-07T21:00:42.888Z,13.82
2022-08-07T21:03:16.404Z,13.50
2022-08-07T21:05:55.865Z,13.43
2022-08-07T21:08:36.661Z,13.38
2022-08-07T21:11:10.898Z,13.50
2022-08-07T21:13:57.400Z,13.63
2022-08-07T21:16:34.425Z,13.93
2022-08-07T21:19:10.073Z,13.98
2022-08-07T21:21:57.274Z,13.88
2022-08-07T21:24:47.910Z,13.73
2022-08-07T21:27:25.595Z,13.56
2022-08-07T21:30:08.443Z,13.50
2022-08-07T21:32:48.892Z,13.39
2022-08-07T21:36:03.758Z,13.35
2022-08-07T21:38:21.522Z,13.36
2022-08-07T21:41:00.948Z,13.29
2022-08-07T21:43:55.653Z,13.30
2022-08-07T21:46:33.022Z,13.20
2022-08-07T21:49:15.080Z,13.20
2022-08-07T21:51:58.625Z,13.02
2022-08-07T21:54:38.941Z,12.94
2022-08-07T21:57:40.102Z,12.81
2022-08-07T22:00:22.826Z,12.83
2022-08-07T22:02:55.939Z,12.75
2022-08-07T22:05:45.964Z,12.80
2022-08-07T22:08:19.581Z,12.90
2022-08-07T22:10:50.601Z,12.90
2022-08-07T22:13:24.401Z,12.82
2022-08-07T22:16:41.463Z,12.76
2022-08-07T22:19:07.469Z,12.89
2022-08-07T22:22:04.694Z,12.90
2022-08-07T22:24:35.192Z,12.78
2022-08-07T22:27:13.331Z,12.73
2022-08-07T22:29:50.249Z,12.71
2022-08-07T22:32:25.104Z,12.72
2022-08-07T22:34:55.963Z,12.59
2022-08-07T22:38:01.895Z,12.31
2022-08-07T22:40:26.826Z,12.17
2022-08-07T22:43:00.140Z,12.31
2022-08-07T22:46:40.427Z,12.37
2022-08-07T22:49:02.418Z,12.38
2022-08-07T22:51:52.076Z,12.23
2022-08-07T22:54:48.836Z,12.18
2022-08-07T22:57:41.039Z,11.97
2022-08-07T23:00:14.396Z,12.02
2022-08-07T23:02:54.342Z,12.07
2022-08-07T23:06:08.908Z,12.10
2022-08-07T23:10:04.562Z,12.10
2022-08-07T23:12:06.245Z,12.15
2022-08-07T23:14:48.337Z,12.20
2022-08-07T23:17:41.686Z,12.23
2022-08-07T23:20:40.220Z,12.08
2022-08-07T23:24:04.349Z,11.96
2022-08-07T23:26:39.750Z,11.85
2022-08-07T23:29:43.355Z,11.87
2022-08-07T23:34:23.454Z,11.95
2022-08-07T23:35:38.656Z,11.98
2022-08-07T23:38:36.650Z,12.00
2022-08-07T23:41:24.487Z,11.86
2022-08-07T23:44:18.600Z,11.77
2022-08-07T23:47:16.586Z,11.76
2022-08-07T23:50:11.731Z,11.77
2022-08-07T23:53:06.210Z,11.83
2022-08-07T23:55:52.025Z,11.82
2022-08-07T23:58:26.659Z,11.78
